Flight Track Log - Related Links

Times and Time Zones

All times are in EDT time to prevent confusion due to time zone crossing. See the SWA706 flight status page for this flight to view local times or setup timezone preferences in your user account.

Time Position Orientation Groundspeed Altitude Reporting Facility
EDT Latitude Longitude Course Direction KTS MPH feet Rate Location/Type
Sat 07:17:13 PM 41.8000 -87.8000 245° Southwest 193 222 2,300  Level Chicago TRACON
Sat 07:18:22 PM 41.7692 -87.8906 245° Southwest 228 262 4,700 2,538 Climbing Chicago Center
Sat 07:19:23 PM 41.7806 -87.9858 279° West 259 298 7,800 3,171 Climbing Chicago Center
Sat 07:20:25 PM 41.8061 -88.0822 290° West 277 319 11,200 2,780 Climbing Chicago Center
Sat 07:21:26 PM 41.8325 -88.1831 289° West 287 330 13,500 2,390 Climbing Chicago Center
Sat 07:22:28 PM 41.8792 -88.2942 299° West 340 391 16,100 2,661 Climbing Chicago Center
Sat 07:23:30 PM 41.9514 -88.4275 306° West 369 425 19,000 2,780 Climbing Chicago Center
Sat 07:24:31 PM 42.0056 -88.5478 301° West 378 435 21,800 2,488 Climbing Chicago Center
Sat 07:25:33 PM 42.0517 -88.6750 296° West 383 441 24,100 1,854 Climbing Chicago Center
Sat 07:26:34 PM 42.0967 -88.8089 294° West 392 451 25,600 1,610 Climbing Chicago Center
Sat 07:27:36 PM 42.1519 -88.9689 295° West 410 472 27,400 1,694 Climbing Chicago Center
Sat 07:28:38 PM 42.2008 -89.1136 295° West 419 482 29,100 1,756 Climbing Chicago Center
Sat 07:29:39 PM 42.2542 -89.2592 296° West 427 491 31,000 1,659 Climbing Chicago Center
Sat 07:30:41 PM 42.3058 -89.4006 296° West 421 484 32,500 1,463 Climbing Chicago Center
Sat 07:31:42 PM 42.3592 -89.5403 297° West 417 480 34,000 976 Climbing Chicago Center
Sat 07:32:44 PM 42.3981 -89.6828 290° West 409 471 34,500 878 Climbing Chicago Center
Sat 07:33:45 PM 42.4050 -89.8308 274° West 394 453 35,800 732 Climbing Chicago Center
Sat 07:34:47 PM 42.4136 -89.9872 274° West 398 458 36,000 98 Climbing Chicago Center
Sat 07:35:48 PM 42.4200 -90.1344 273° West 396 456 36,000  Level Chicago Center
Sat 07:36:50 PM 42.4272 -90.2833 274° West 397 457 36,000  Level Chicago Center
Sat 07:37:52 PM 42.4353 -90.4606 274° West 397 457 36,000  Level Chicago Center
Sat 07:38:53 PM 42.4414 -90.6097 273° West 400 460 36,000  Level Chicago Center
Sat 07:39:55 PM 42.4494 -90.7589 274° West 400 460 36,000  Level Chicago Center
Sat 07:40:56 PM 42.4556 -90.9081 273° West 401 461 36,000  Level Chicago Center
Sat 07:41:58 PM 42.4603 -91.0583 272° West 402 463 36,000  Level Chicago Center
Sat 07:42:59 PM 42.4661 -91.2106 273° West 406 467 36,000  Level Chicago Center
Sat 07:44:01 PM 42.4714 -91.3614 273° West 405 466 36,000  Level Chicago Center
Sat 07:45:02 PM 42.4761 -91.5153 272° West 408 470 36,000  Level Chicago Center
Sat 07:46:04 PM 42.4817 -91.7003 272° West 410 472 36,000  Level Chicago Center
Sat 07:47:05 PM 42.4867 -91.8542 273° West 410 472 36,000  Level Chicago Center
Sat 07:48:06 PM 42.4908 -92.0083 272° West 410 472 36,000  Level Chicago Center
Sat 07:49:08 PM 42.4956 -92.1600 272° West 407 468 36,000 293 Level Chicago Center
Sat 07:50:09 PM 42.4994 -92.3136 272° West 410 472 36,600 732 Climbing Chicago Center
Sat 07:51:11 PM 42.5039 -92.4669 272° West 412 474 37,500 683 Climbing Chicago Center
Sat 07:52:12 PM 42.5075 -92.6217 272° West 413 475 38,000 270 Climbing Chicago Center
Sat 07:53:02 PM 42.5106 -92.7747 272° West 409 471 38,000  Level Minneapolis Center
Sat 07:54:04 PM 42.5133 -92.9272 271° West 410 472 38,000  Level Minneapolis Center
Sat 07:55:17 PM 42.5167 -93.1083 271° West 408 470 38,000  Level Chicago Center
Sat 07:56:18 PM 42.5208 -93.2636 272° West 413 475 38,000  Level Chicago Center
Sat 07:57:08 PM 42.5225 -93.3881 271° West 414 476 38,000  Level Minneapolis Center
Sat 07:58:10 PM 42.5261 -93.5411 272° West 412 474 38,000  Level Minneapolis Center
Sat 07:59:11 PM 42.5292 -93.6953 272° West 413 475 38,000  Level Minneapolis Center
Sat 08:00:13 PM 42.5306 -93.8783 271° West 410 472 38,000  Level Minneapolis Center
Sat 08:01:18 PM 42.5325 -94.0311 271° West 411 473 38,000  Level Minneapolis Center
Sat 08:02:19 PM 42.5333 -94.1825 270° West 407 468 38,000  Level Minneapolis Center
Sat 08:03:21 PM 42.5353 -94.3347 271° West 407 468 38,000  Level Minneapolis Center
Sat 08:04:22 PM 42.5364 -94.5189 271° West 412 474 38,000  Level Minneapolis Center
Sat 08:05:24 PM 42.5375 -94.6581 271° West 412 474 38,000  Level Minneapolis Center
Sat 08:06:25 PM 42.5397 -94.8139 271° West 414 476 38,000  Level Minneapolis Center
Sat 08:07:26 PM 42.5408 -94.9989 271° West 411 473 38,000  Level Minneapolis Center
Sat 08:08:28 PM 42.5394 -95.1514 269° West 409 471 38,000  Level Minneapolis Center
Sat 08:09:29 PM 42.5400 -95.3039 270° West 406 467 38,000  Level Minneapolis Center
Sat 08:10:31 PM 42.5383 -95.4542 269° West 402 463 38,000  Level Minneapolis Center
Sat 08:11:32 PM 42.5389 -95.6050 270° West 401 461 38,000  Level Minneapolis Center
Sat 08:12:33 PM 42.5375 -95.7547 269° West 398 458 38,000  Level Minneapolis Center
Sat 08:13:34 PM 42.5369 -95.9050 270° West 401 461 38,000  Level Minneapolis Center
Sat 08:14:36 PM 42.5358 -96.0533 269° West 397 457 38,000  Level Minneapolis Center
Sat 08:15:37 PM 42.5347 -96.2047 269° West 401 461 38,000  Level Minneapolis Center
Sat 08:16:38 PM 42.5342 -96.3875 270° West 404 465 38,000  Level Minneapolis Center
Sat 08:17:40 PM 42.5319 -96.5450 269° West 416 479 38,000  Level Minneapolis Center
Sat 08:18:41 PM 42.5306 -96.7000 269° West 415 478 38,000  Level Minneapolis Center
Sat 08:19:42 PM 42.5281 -96.8550 269° West 413 475 38,000  Level Minneapolis Center
Sat 08:20:43 PM 42.5258 -97.0111 269° West 415 478 38,000  Level Minneapolis Center
Sat 08:21:45 PM 42.5236 -97.1683 269° West 417 480 38,000  Level Minneapolis Center
Sat 08:22:46 PM 42.5206 -97.3242 269° West 416 479 38,000  Level Minneapolis Center
Sat 08:23:47 PM 42.5181 -97.4833 269° West 421 484 38,000  Level Minneapolis Center
Sat 08:24:48 PM 42.5142 -97.6431 268° West 424 488 38,000  Level Minneapolis Center
Sat 08:25:50 PM 42.5106 -97.8369 269° West 431 496 38,000  Level Minneapolis Center
Sat 08:26:51 PM 42.5067 -97.9847 268° West 428 493 38,000  Level Minneapolis Center
Sat 08:27:52 PM 42.5031 -98.1467 268° West 430 495 38,000  Level Minneapolis Center
Sat 08:28:54 PM 42.4994 -98.3094 268° West 432 497 38,000  Level Minneapolis Center
Sat 08:29:55 PM 42.4947 -98.4714 268° West 432 497 38,000  Level Minneapolis Center
Sat 08:30:56 PM 42.4889 -98.6669 268° West 433 498 38,000  Level Minneapolis Center
Sat 08:31:58 PM 42.4844 -98.8308 268° West 435 501 38,000  Level Minneapolis Center
Sat 08:32:59 PM 42.4792 -98.9947 268° West 436 502 38,000  Level Minneapolis Center
Sat 08:34:00 PM 42.4739 -99.1594 268° West 438 504 38,000  Level Minneapolis Center
Sat 08:35:02 PM 42.4683 -99.3242 267° West 438 504 38,000  Level Minneapolis Center
Sat 08:36:03 PM 42.4622 -99.4881 267° West 437 503 38,000  Level Minneapolis Center
Sat 08:37:04 PM 42.4567 -99.6514 267° West 436 502 38,000  Level Minneapolis Center
Sat 08:37:47 PM 42.4506 -99.7831 266° West 435 501 38,000  Level Denver Center
Sat 08:38:48 PM 42.4442 -99.9461 267° West 435 501 38,000  Level Denver Center
Sat 08:39:49 PM 42.4369 -100.1047 267° West 438 504 38,000  Level Denver Center
Sat 08:40:50 PM 42.4294 -100.2869 267° West 435 501 38,000  Level Denver Center
Sat 08:41:51 PM 42.4231 -100.4436 267° West 436 502 38,000  Level Denver Center
Sat 08:42:52 PM 42.4164 -100.5997 267° West 436 502 38,000  Level Denver Center
Sat 08:43:53 PM 42.4069 -100.7797 266° West 432 497 38,000  Level Denver Center
Sat 08:44:55 PM 42.3997 -100.9325 266° West 427 491 38,000  Level Denver Center
Sat 08:45:56 PM 42.3903 -101.1106 266° West 426 490 38,000  Level Denver Center
Sat 08:46:57 PM 42.3833 -101.2625 267° West 426 490 38,000  Level Denver Center
Sat 08:47:58 PM 42.3756 -101.4128 266° West 421 484 38,000  Level Denver Center
Sat 08:48:59 PM 42.3658 -101.5853 266° West 414 476 38,000  Level Denver Center
Sat 08:50:12 PM 42.3564 -101.7583 266° West 415 478 38,000  Level Denver Center
Sat 08:51:13 PM 42.3472 -101.9133 265° West 411 473 38,000  Level Denver Center
Sat 08:52:14 PM 42.3367 -102.0853 265° West 410 472 38,000  Level Denver Center
Sat 08:53:15 PM 42.3275 -102.2322 265° West 411 473 38,000  Level Denver Center
Sat 08:54:16 PM 42.3194 -102.3778 266° West 409 471 38,000  Level Denver Center
Sat 08:55:18 PM 42.3081 -102.5489 265° West 410 472 38,000  Level Denver Center
Sat 08:56:19 PM 42.3003 -102.6958 266° West 411 473 38,000  Level Denver Center
Sat 08:57:20 PM 42.2869 -102.8672 264° West 411 473 38,000  Level Denver Center
Sat 08:58:21 PM 42.2781 -103.0158 265° West 415 478 38,000  Level Denver Center
Sat 08:59:22 PM 42.2675 -103.1628 265° West 412 474 38,000  Level Denver Center
Sat 09:00:23 PM 42.2556 -103.3356 265° West 414 476 38,000  Level Denver Center
Sat 09:01:24 PM 42.2458 -103.4894 265° West 426 490 38,000  Level Denver Center
Sat 09:02:25 PM 42.2342 -103.6400 264° West 422 486 38,000  Level Denver Center
Sat 09:03:26 PM 42.2211 -103.8136 264° West 418 481 38,000  Level Denver Center
Sat 09:04:28 PM 42.2097 -103.9625 264° West 417 480 38,000  Level Denver Center
Sat 09:05:29 PM 42.1983 -104.1108 264° West 415 478 38,000  Level Denver Center
Sat 09:06:30 PM 42.1847 -104.2817 264° West 410 472 38,000  Level Denver Center
Sat 09:07:31 PM 42.1733 -104.4278 264° West 408 470 38,000  Level Denver Center
Sat 09:08:32 PM 42.1619 -104.5742 264° West 408 470 38,000  Level Denver Center
Sat 09:09:33 PM 42.1472 -104.7436 263° West 406 467 38,000  Level Denver Center
Sat 09:10:34 PM 42.1358 -104.8903 264° West 408 470 38,000  Level Denver Center
Sat 09:11:35 PM 42.1233 -105.0375 264° West 411 473 38,000  Level Denver Center
Sat 09:12:36 PM 42.1083 -105.2097 263° West 412 474 38,000  Level Denver Center
Sat 09:13:38 PM 42.0956 -105.3556 263° West 411 473 38,000  Level Denver Center
Sat 09:14:39 PM 42.0806 -105.5275 263° West 413 475 38,000  Level Denver Center
Sat 09:15:40 PM 42.0675 -105.6750 263° West 414 476 38,000  Level Denver Center
Sat 09:16:41 PM 42.0547 -105.8203 263° West 411 473 38,000  Level Denver Center
Sat 09:17:42 PM 42.0383 -105.9914 263° West 412 474 38,000  Level Denver Center
Sat 09:18:43 PM 42.0253 -106.1372 263° West 411 473 38,000  Level Denver Center
Sat 09:19:44 PM 42.0108 -106.2842 263° West 413 475 38,000  Level Denver Center
Sat 09:20:46 PM 41.9939 -106.4556 262° West 414 476 38,000  Level Denver Center
Sat 09:21:47 PM 41.9803 -106.6011 263° West 415 478 38,000  Level Denver Center
Sat 09:22:48 PM 41.9619 -106.7725 262° West 415 478 38,000  Level Denver Center
Sat 09:23:49 PM 41.9472 -106.9192 262° West 416 479 38,000  Level Denver Center
Sat 09:24:50 PM 41.9322 -107.0678 262° West 419 482 38,000  Level Denver Center
Sat 09:25:52 PM 41.9133 -107.2403 262° West 419 482 38,000  Level Denver Center
Sat 09:26:53 PM 41.8997 -107.3878 263° West 418 481 38,000  Level Denver Center
Sat 09:27:54 PM 41.8797 -107.5617 261° West 421 484 38,000  Level Denver Center
Sat 09:29:07 PM 41.8639 -107.7092 262° West 420 483 38,000  Level Denver Center
Sat 09:30:09 PM 41.8475 -107.8569 262° West 419 482 38,000  Level Denver Center
Sat 09:31:10 PM 41.8253 -108.0550 262° West 421 484 38,000  Level Denver Center
Sat 09:32:11 PM 41.8094 -108.2017 262° West 418 481 38,000  Level Denver Center
Sat 09:33:12 PM 41.7894 -108.3711 261° West 414 476 38,000  Level Denver Center
Sat 09:34:14 PM 41.7731 -108.5161 261° West 414 476 38,000  Level Denver Center
Sat 09:35:15 PM 41.7531 -108.6847 261° West 412 474 38,000  Level Denver Center
Sat 09:36:23 PM 41.7325 -108.8558 261° West 415 478 38,000  Level Salt Lake Center
Sat 09:37:25 PM 41.7153 -109.0022 261° West 418 481 38,000  Level Salt Lake Center
Sat 09:38:26 PM 41.6950 -109.1731 261° West 420 483 38,000  Level Salt Lake Center
Sat 09:39:27 PM 41.6781 -109.3200 261° West 422 486 38,000  Level Salt Lake Center
Sat 09:40:28 PM 41.6586 -109.4656 260° West 421 484 38,000  Level Salt Lake Center
Sat 09:41:29 PM 41.6364 -109.6333 260° West 414 476 38,000  Level Salt Lake Center
Sat 09:42:30 PM 41.6181 -109.7781 260° West 415 478 38,000  Level Salt Lake Center
Sat 09:43:31 PM 41.5958 -109.9461 260° West 413 475 38,000  Level Salt Lake Center
Sat 09:44:32 PM 41.5767 -110.0911 260° West 414 476 38,000  Level Salt Lake Center
Sat 09:45:33 PM 41.5581 -110.2367 260° West 416 479 38,000  Level Salt Lake Center
Sat 09:46:35 PM 41.5350 -110.4056 260° West 416 479 38,000  Level Salt Lake Center
Sat 09:47:36 PM 41.5156 -110.5519 260° West 418 481 38,000  Level Salt Lake Center
Sat 09:48:37 PM 41.4919 -110.7219 260° West 419 482 38,000  Level Salt Lake Center
Sat 09:49:38 PM 41.4722 -110.8669 260° West 418 481 38,000  Level Salt Lake Center
Sat 09:50:39 PM 41.4500 -111.0219 259° West 417 480 38,000  Level Salt Lake Center
Sat 09:51:40 PM 41.4292 -111.1747 260° West 421 484 38,000  Level Salt Lake Center
Sat 09:52:41 PM 41.4075 -111.3264 259° West 420 483 38,000  Level Salt Lake Center
Sat 09:53:43 PM 41.3853 -111.4783 259° West 423 487 38,000  Level Salt Lake Center
Sat 09:54:44 PM 41.3644 -111.6294 260° West 420 483 38,000  Level Salt Lake Center
Sat 09:55:45 PM 41.3422 -111.7803 259° West 420 483 38,000  Level Salt Lake Center
Sat 09:56:46 PM 41.3156 -111.9586 259° West 417 480 38,000  Level Salt Lake Center
Sat 09:57:47 PM 41.2939 -112.1078 259° West 417 480 38,000  Level Salt Lake Center
Sat 09:58:48 PM 41.2717 -112.2564 259° West 414 476 38,000  Level Salt Lake Center
Sat 09:59:49 PM 41.2489 -112.4050 259° West 414 476 38,000  Level Salt Lake Center
Sat 10:00:50 PM 41.2264 -112.5531 259° West 413 475 38,000  Level Salt Lake Center
Sat 10:01:51 PM 41.2033 -112.7011 258° West 412 474 38,000  Level Salt Lake Center
Sat 10:02:53 PM 41.1803 -112.8511 259° West 416 479 38,000  Level Salt Lake Center
Sat 10:03:54 PM 41.1564 -113.0014 258° West 420 483 38,000  Level Salt Lake Center
Sat 10:04:55 PM 41.1275 -113.1797 258° West 414 476 38,000  Level Salt Lake Center
Sat 10:05:56 PM 41.1039 -113.3289 258° West 414 476 38,000  Level Salt Lake Center
Sat 10:06:57 PM 41.0786 -113.4781 257° West 415 478 38,000  Level Salt Lake Center
Sat 10:07:58 PM 41.0567 -113.6281 259° West 416 479 38,000  Level Salt Lake Center
Sat 10:08:59 PM 41.0317 -113.7789 258° West 421 484 38,000  Level Salt Lake Center
Sat 10:10:00 PM 41.0056 -113.9292 257° West 420 483 38,000  Level Salt Lake Center
Sat 10:11:01 PM 40.9797 -114.0803 257° West 421 484 38,000  Level Salt Lake Center
Sat 10:12:03 PM 40.9544 -114.2319 258° West 423 487 38,000  Level Salt Lake Center
Sat 10:13:04 PM 40.9289 -114.3831 257° West 422 486 38,000  Level Salt Lake Center
Sat 10:14:05 PM 40.9036 -114.5383 258° West 424 488 38,000  Level Salt Lake Center
Sat 10:15:06 PM 40.8739 -114.7094 257° West 427 491 38,000  Level Salt Lake Center
Sat 10:16:07 PM 40.8489 -114.8511 257° West 419 482 38,000  Level Salt Lake Center
Sat 10:17:08 PM 40.8156 -115.0192 255° West 422 486 38,000  Level Salt Lake Center
Sat 10:18:09 PM 40.7892 -115.1628 256° West 419 482 38,000  Level Salt Lake Center
Sat 10:19:10 PM 40.7639 -115.3053 257° West 419 482 38,000  Level Salt Lake Center
Sat 10:20:11 PM 40.7339 -115.4733 257° West 421 484 38,000  Level Salt Lake Center
Sat 10:21:13 PM 40.7094 -115.6172 257° West 420 483 38,000  Level Salt Lake Center
Sat 10:22:14 PM 40.6819 -115.7606 256° West 421 484 38,000  Level Salt Lake Center
Sat 10:23:15 PM 40.6514 -115.9278 257° West 423 487 38,000  Level Salt Lake Center
Sat 10:24:16 PM 40.6256 -116.0719 257° West 422 486 38,000  Level Salt Lake Center
Sat 10:25:17 PM 40.5933 -116.2417 256° West 428 493 38,000  Level Salt Lake Center
Sat 10:26:18 PM 40.5664 -116.3867 256° West 427 491 38,000  Level Salt Lake Center
Sat 10:27:19 PM 40.5386 -116.5303 256° West 426 490 38,000  Level Salt Lake Center
Sat 10:28:20 PM 40.5075 -116.6967 256° West 423 487 38,000  Level Salt Lake Center
Sat 10:29:21 PM 40.4761 -116.8542 255° West 425 489 38,000  Level Salt Lake Center
Sat 10:30:22 PM 40.4481 -117.0036 256° West 428 493 38,000  Level Salt Lake Center
Sat 10:31:23 PM 40.4194 -117.1450 255° West 426 490 38,000  Level Salt Lake Center
Sat 10:32:24 PM 40.3908 -117.2872 255° West 423 487 38,000  Level Salt Lake Center
Sat 10:33:25 PM 40.3564 -117.4547 255° West 425 489 38,000 -148 Level Salt Lake Center
Sat 10:34:26 PM 40.3281 -117.5969 255° West 423 487 37,700 -634 Descending Salt Lake Center
Sat 10:35:28 PM 40.2936 -117.7633 255° West 424 488 36,700 -942 Descending Salt Lake Center
Sat 10:36:27 PM 40.2650 -117.9086 256° West 431 496 35,800 -950 Descending Oakland Center
Sat 10:37:28 PM 40.2331 -118.0589 254° West 429 494 34,800 -934 Descending Oakland Center
Sat 10:38:29 PM 40.2017 -118.2144 255° West 440 506 33,900 -1,426 Descending Oakland Center
Sat 10:39:30 PM 40.1692 -118.3706 255° West 446 513 31,900 -2,132 Descending Oakland Center
Sat 10:40:30 PM 40.1369 -118.5236 255° West 442 509 29,600 -2,231 Descending Oakland Center
Sat 10:41:31 PM 40.0703 -118.6456 234° Southwest 424 488 27,400 -2,164 Descending Oakland Center
Sat 10:43:33 PM 39.9014 -118.8531 223° Southwest 412 474 23,000 -2,295 Descending Oakland Center
Sat 10:44:34 PM 39.8053 -118.9697 223° Southwest 398 458 20,400 -2,213 Descending Oakland Center
Sat 10:45:35 PM 39.7281 -119.0656 224° Southwest 390 449 18,500 -1,377 Descending Oakland Center
Sat 10:46:36 PM 39.6522 -119.1572 223° Southwest 379 436 17,600 -934 Descending Oakland Center
Sat 10:47:37 PM 39.5758 -119.2478 222° Southwest 376 433 16,600 -1,041 Descending Oakland Center
Sat 10:48:37 PM 39.5011 -119.3369 223° Southwest 370 426 15,500 -1,388 Descending Oakland Center
Sat 10:49:38 PM 39.4289 -119.4239 223° Southwest 360 414 13,800 -1,328 Descending Oakland Center
Sat 10:50:39 PM 39.3614 -119.5047 223° Southwest 340 391 12,800 -984 Descending Oakland Center
Sat 10:51:40 PM 39.3311 -119.5978 247° West 304 350 11,800 -1,475 Descending Oakland Center
Sat 10:52:41 PM 39.3339 -119.6961 272° West 284 327 9,800 -1,230 Descending Oakland Center
Sat 10:53:42 PM 39.3569 -119.7658 293° West 235 270 9,300 -1,056 Descending Oakland Center
Sat 10:54:29 PM 39.4000 -119.7667 359° North 166 191 7,900 -1,907 Descending Northern Cal TRACON
Sat 10:55:29 PM 39.4333 -119.7667 360° North 167 192 5,900 -1,600 Descending Northern Cal TRACON
Sat 10:56:29 PM 39.4833 -119.7667 360° North 138 159 4,700 -1,200 Descending Northern Cal TRACON
Sat 10:58:00 PM 39.4991 -119.7681 322° Northwest  Level Estimated
Sat 11:05:00 PM 39.4991 -119.7681 322° Northwest  Level Estimated

Login

Don't have an account? Register now (free) for customized features, flight alerts, and more!